Weather at Avesta Airport

Public forecast

Using degrees Celsius for public forecast. Weather courtesy of forecast.io.

Closest aviation weather report (METAR) to Avesta Airport

Closest report is Dala Airport, 23.2 nm (42.9 km) NW. Retrieved 2022/08/19 13:20 UTC (40 minutes ago):

ESSD 191320Z AUTO 06003KT 9999 BKN016/// BKN021/// 22/20 Q1013

Closest aviation forecast (TAF) to Avesta Airport

Forecast is more than 12 hours old.

Closest forecast is Dala Airport, 23.2 nm (42.9 km) NW. Retrieved 2022/04/07 18:12 UTC (4 months ago):

TAF ESSD 071731Z 0718/0806 CNL